createdAt,value
2019-03-02T00:00:28.562Z,6.77
2019-03-02T00:02:56.810Z,6.78
2019-03-02T00:05:44.669Z,6.89
2019-03-02T00:08:11.885Z,7.02
2019-03-02T00:10:58.516Z,7.01
2019-03-02T00:16:43.351Z,7.15
2019-03-02T00:19:19.318Z,7.16
2019-03-02T00:22:27.416Z,7.22
2019-03-02T00:28:40.579Z,7.35
2019-03-02T00:31:07.725Z,7.38
2019-03-02T00:33:34.888Z,7.43
2019-03-02T00:36:01.967Z,7.47
2019-03-02T00:38:30.963Z,7.46
2019-03-02T00:41:10.238Z,7.51
2019-03-02T00:46:59.579Z,7.64
2019-03-02T00:52:40.426Z,7.63
2019-03-02T00:55:07.599Z,7.69
2019-03-02T00:57:34.791Z,7.74
2019-03-02T01:00:42.815Z,7.75
2019-03-02T01:03:11.997Z,7.75
2019-03-02T01:05:58.726Z,7.75
2019-03-02T01:08:26.247Z,7.77
2019-03-02T01:10:54.731Z,7.77
2019-03-02T01:13:41.199Z,7.77
2019-03-02T01:19:09.133Z,7.79
2019-03-02T01:21:37.506Z,7.86
2019-03-02T01:24:52.483Z,7.83
2019-03-02T01:27:39.193Z,7.83
2019-03-02T01:30:09.918Z,7.86
2019-03-02T01:32:37.783Z,7.86
2019-03-02T01:53:45.707Z,7.95
2019-03-02T01:57:17.215Z,7.91
2019-03-02T02:02:50.911Z,7.88
2019-03-02T02:05:58.893Z,7.85
2019-03-02T02:08:29.525Z,7.82
2019-03-02T02:11:56.101Z,7.76
2019-03-02T02:14:23.323Z,7.72
2019-03-02T02:17:31.314Z,7.72
2019-03-02T02:19:58.497Z,7.71
2019-03-02T02:23:09.800Z,7.72
2019-03-02T02:25:53.717Z,7.69
2019-03-02T02:28:20.940Z,7.69
2019-03-02T02:33:48.961Z,7.72
2019-03-02T02:39:33.483Z,7.71
2019-03-02T02:45:53.720Z,7.68
2019-03-02T02:48:19.576Z,7.71
2019-03-02T02:51:27.510Z,7.74
2019-03-02T03:06:32.657Z,7.70
2019-03-02T03:09:51.162Z,7.72
2019-03-02T03:12:38.150Z,7.66
2019-03-02T03:15:46.411Z,7.62
2019-03-02T03:24:17.506Z,7.52
2019-03-02T03:26:45.032Z,7.47
2019-03-02T03:29:12.233Z,7.47
2019-03-02T03:32:20.330Z,7.47
2019-03-02T03:34:47.515Z,7.41
2019-03-02T03:37:15.053Z,7.39
2019-03-02T03:43:05.141Z,7.30
2019-03-02T03:45:32.336Z,7.26
2019-03-02T03:47:59.407Z,7.24
2019-03-02T03:50:26.573Z,7.22
2019-03-02T03:59:09.355Z,7.28
2019-03-02T04:01:36.641Z,7.33
2019-03-02T04:04:35.972Z,7.37
2019-03-02T04:07:06.445Z,7.43
2019-03-02T04:10:25.970Z,7.47
2019-03-02T04:25:26.780Z,7.45
2019-03-02T04:27:55.941Z,7.48
2019-03-02T04:30:32.951Z,7.50
2019-03-02T04:39:17.337Z,7.49
2019-03-02T04:41:44.511Z,7.47
2019-03-02T04:44:12.024Z,7.47
2019-03-02T04:47:22.502Z,7.48
2019-03-02T04:49:57.315Z,7.50
2019-03-02T04:52:46.600Z,7.52
2019-03-02T04:58:32.019Z,7.58
2019-03-02T05:01:18.687Z,7.59
2019-03-02T05:03:45.900Z,7.56
2019-03-02T05:06:15.701Z,7.58
2019-03-02T05:09:07.769Z,7.60
2019-03-02T05:14:49.711Z,7.57
2019-03-02T05:17:57.722Z,7.59
2019-03-02T05:20:24.945Z,7.62
2019-03-02T05:22:54.836Z,7.62
2019-03-02T05:25:27.849Z,7.66
2019-03-02T05:27:55.020Z,7.83
2019-03-02T05:30:22.202Z,7.89
2019-03-02T05:36:03.722Z,7.86
2019-03-02T05:38:43.627Z,7.83
2019-03-02T05:41:42.600Z,7.83
2019-03-02T05:44:29.207Z,7.86
2019-03-02T05:46:57.851Z,8.01
2019-03-02T05:49:45.524Z,7.91
2019-03-02T05:52:54.226Z,7.82
2019-03-02T05:55:42.334Z,7.75
2019-03-02T05:58:12.545Z,7.70
2019-03-02T06:01:17.878Z,7.71
2019-03-02T06:04:25.933Z,7.83
2019-03-02T06:09:32.234Z,7.80
2019-03-02T06:11:59.701Z,8.01
2019-03-02T06:14:30.492Z,7.93
2019-03-02T06:17:16.135Z,7.84
2019-03-02T06:23:03.169Z,7.83
2019-03-02T06:25:30.397Z,7.76
2019-03-02T06:30:50.273Z,7.73
2019-03-02T06:33:36.926Z,7.77
2019-03-02T06:36:46.029Z,7.85
2019-03-02T06:42:54.170Z,7.98
2019-03-02T06:48:22.451Z,8.07
2019-03-02T06:53:50.467Z,8.07
2019-03-02T06:56:17.697Z,8.15
2019-03-02T06:58:44.876Z,8.26
2019-03-02T07:01:52.943Z,8.24
2019-03-02T07:13:42.909Z,8.33
2019-03-02T07:16:10.073Z,8.38
2019-03-02T07:24:39.363Z,8.35
2019-03-02T07:33:08.857Z,8.44
2019-03-02T07:41:58.925Z,8.56
2019-03-02T07:45:06.964Z,8.62
2019-03-02T07:47:55.991Z,8.76
2019-03-02T07:50:29.719Z,8.93
2019-03-02T07:53:03.853Z,8.98
2019-03-02T07:55:31.093Z,9.01
2019-03-02T07:57:58.292Z,9.02
2019-03-02T08:01:06.311Z,9.06
2019-03-02T08:10:40.323Z,9.27
2019-03-02T08:13:07.485Z,9.36
2019-03-02T08:15:34.705Z,9.41
2019-03-02T08:18:01.807Z,9.32
2019-03-02T08:20:30.936Z,9.28
2019-03-02T08:22:58.219Z,9.23
2019-03-02T08:25:25.939Z,9.24
2019-03-02T08:27:53.113Z,9.21
2019-03-02T08:30:20.335Z,9.29
2019-03-02T08:32:59.289Z,9.38
2019-03-02T08:35:26.502Z,9.33
2019-03-02T08:38:35.720Z,9.47
2019-03-02T08:45:15.226Z,9.47
2019-03-02T08:51:29.173Z,9.57
2019-03-02T09:03:52.112Z,9.93
2019-03-02T09:09:53.536Z,10.19
2019-03-02T09:15:34.418Z,10.38
2019-03-02T09:18:01.508Z,10.45
2019-03-02T09:20:32.348Z,10.57
2019-03-02T09:26:08.555Z,10.57
2019-03-02T09:28:35.751Z,10.49
2019-03-02T09:37:07.076Z,11.11
2019-03-02T09:39:53.388Z,11.44
2019-03-02T09:51:24.071Z,12.03
2019-03-02T09:54:33.923Z,11.92
2019-03-02T09:57:07.787Z,11.92
2019-03-02T09:59:46.663Z,11.91
2019-03-02T10:02:14.414Z,11.96
2019-03-02T10:05:11.464Z,12.08
2019-03-02T10:13:25.892Z,12.23
2019-03-02T10:19:33.264Z,12.43
2019-03-02T10:22:00.438Z,12.53
2019-03-02T10:24:28.277Z,12.57
2019-03-02T10:26:55.523Z,12.39
2019-03-02T10:29:22.713Z,12.17
2019-03-02T10:32:30.739Z,12.01
2019-03-02T10:43:52.485Z,12.02
2019-03-02T10:46:19.755Z,12.19
2019-03-02T10:48:46.917Z,12.34
2019-03-02T10:51:14.138Z,12.54
2019-03-02T10:54:01.110Z,12.86
2019-03-02T10:56:28.338Z,12.94
2019-03-02T11:02:36.198Z,13.12
2019-03-02T11:09:09.534Z,13.53
2019-03-02T11:11:56.562Z,13.68
2019-03-02T11:14:43.438Z,13.76
2019-03-02T11:20:50.037Z,13.54
2019-03-02T11:23:36.806Z,13.59
2019-03-02T11:29:38.422Z,13.67
2019-03-02T11:32:25.454Z,13.87
2019-03-02T11:35:12.286Z,14.08
2019-03-02T11:38:01.619Z,14.43
2019-03-02T11:40:43.208Z,14.57
2019-03-02T11:46:57.619Z,14.89
2019-03-02T11:52:22.118Z,14.85
2019-03-02T11:58:09.719Z,14.47
2019-03-02T12:00:57.841Z,14.53
2019-03-02T12:03:51.127Z,14.52
2019-03-02T12:06:40.996Z,14.47
2019-03-02T12:09:46.710Z,14.08
2019-03-02T12:12:46.156Z,14.09
2019-03-02T12:15:33.205Z,14.51
2019-03-02T12:18:19.831Z,15.01
2019-03-02T12:21:25.953Z,15.29
2019-03-02T12:33:21.951Z,14.76
2019-03-02T12:42:37.740Z,13.67
2019-03-02T12:45:45.827Z,13.31
2019-03-02T12:48:32.658Z,13.10
2019-03-02T12:51:19.549Z,13.33
2019-03-02T12:57:08.600Z,13.89
2019-03-02T13:00:37.361Z,14.02
2019-03-02T13:03:36.263Z,14.16
2019-03-02T13:06:22.986Z,14.12
2019-03-02T13:09:31.063Z,14.03
2019-03-02T13:15:42.125Z,13.62
2019-03-02T13:18:53.576Z,13.52
2019-03-02T13:21:40.529Z,13.36
2019-03-02T13:24:22.445Z,13.09
2019-03-02T13:27:14.200Z,12.94
2019-03-02T13:30:00.977Z,12.86
2019-03-02T13:33:09.029Z,12.74
2019-03-02T13:36:00.219Z,12.55
2019-03-02T13:39:25.373Z,12.26
2019-03-02T13:42:12.158Z,12.02
2019-03-02T13:44:59.030Z,11.96
2019-03-02T13:47:48.783Z,12.15
2019-03-02T13:50:54.758Z,12.55
2019-03-02T13:57:28.087Z,13.63
2019-03-02T14:00:14.810Z,13.91
2019-03-02T14:03:01.868Z,13.79
2019-03-02T14:05:50.446Z,13.54
2019-03-02T14:08:46.191Z,13.27
2019-03-02T14:14:54.225Z,12.90
2019-03-02T14:17:33.226Z,12.70
2019-03-02T14:20:20.755Z,12.57
2019-03-02T14:23:32.256Z,12.54
2019-03-02T14:26:23.209Z,12.59
2019-03-02T14:29:11.392Z,12.74
2019-03-02T14:32:18.514Z,13.01
2019-03-02T14:35:05.246Z,13.48
2019-03-02T14:38:13.322Z,13.72
2019-03-02T14:43:59.563Z,14.19
2019-03-02T14:46:46.341Z,14.33
2019-03-02T14:49:33.132Z,14.37
2019-03-02T14:52:19.871Z,14.42
2019-03-02T14:55:06.666Z,14.41
2019-03-02T14:57:56.783Z,14.23
2019-03-02T15:00:48.581Z,13.99
2019-03-02T15:03:35.233Z,13.94
2019-03-02T15:06:44.702Z,13.77
2019-03-02T15:13:03.636Z,13.47
2019-03-02T15:19:27.002Z,13.24
2019-03-02T15:22:14.835Z,13.36
2019-03-02T15:25:01.785Z,13.38
2019-03-02T15:28:11.578Z,13.40
2019-03-02T15:30:59.298Z,13.52
2019-03-02T15:34:28.086Z,13.52
2019-03-02T15:37:10.112Z,13.40
2019-03-02T15:42:58.547Z,13.17
2019-03-02T15:46:14.159Z,13.19
2019-03-02T15:49:03.523Z,13.10
2019-03-02T15:52:09.358Z,13.12
2019-03-02T15:55:08.279Z,12.87
2019-03-02T15:58:15.539Z,12.71
2019-03-02T16:04:03.290Z,12.75
2019-03-02T16:07:11.285Z,12.85
2019-03-02T16:12:59.092Z,12.75
2019-03-02T16:15:48.973Z,12.72
2019-03-02T16:18:41.138Z,12.70
2019-03-02T16:21:21.174Z,12.60
2019-03-02T16:30:10.527Z,12.69
2019-03-02T16:42:01.229Z,12.71
2019-03-02T16:44:47.957Z,12.59
2019-03-02T16:50:36.406Z,12.46
2019-03-02T16:56:21.524Z,12.44
2019-03-02T16:59:09.414Z,12.33
2019-03-02T17:02:17.426Z,12.27
2019-03-02T17:08:09.860Z,12.14
2019-03-02T17:17:18.600Z,12.01
2019-03-02T17:19:52.405Z,11.93
2019-03-02T17:25:34.713Z,11.90
2019-03-02T17:30:49.118Z,11.89
2019-03-02T17:33:35.862Z,12.01
2019-03-02T17:36:22.953Z,12.11
2019-03-02T17:42:18.916Z,12.01
2019-03-02T17:48:06.348Z,11.96
2019-03-02T17:50:39.421Z,11.75
2019-03-02T17:53:14.682Z,11.78
2019-03-02T18:14:23.391Z,11.78
2019-03-02T18:17:31.460Z,11.77
2019-03-02T18:19:58.917Z,11.70
2019-03-02T18:22:27.969Z,11.59
2019-03-02T18:25:14.655Z,11.53
2019-03-02T18:28:02.051Z,11.36
2019-03-02T18:30:31.548Z,11.39
2019-03-02T18:36:18.772Z,11.50
2019-03-02T18:38:48.740Z,11.36
2019-03-02T18:41:21.138Z,11.26
2019-03-02T18:43:48.323Z,11.27
2019-03-02T18:46:17.766Z,11.22
2019-03-02T18:49:15.141Z,11.15
2019-03-02T18:52:02.018Z,11.10
2019-03-02T18:54:29.894Z,11.20
2019-03-02T19:00:50.171Z,11.07
2019-03-02T19:03:21.016Z,10.94
2019-03-02T19:05:53.063Z,11.09
2019-03-02T19:08:41.539Z,11.03
2019-03-02T19:11:51.290Z,11.10
2019-03-02T19:14:25.310Z,11.00
2019-03-02T19:16:52.531Z,10.87
2019-03-02T19:19:19.704Z,10.82
2019-03-02T19:22:27.878Z,10.87
2019-03-02T19:25:14.530Z,10.87
2019-03-02T19:27:41.772Z,10.85
2019-03-02T19:34:01.135Z,10.91
2019-03-02T19:36:28.339Z,10.72
2019-03-02T19:38:55.488Z,10.70
2019-03-02T19:44:03.167Z,10.78
2019-03-02T19:46:30.336Z,10.68
2019-03-02T19:48:57.512Z,10.68
2019-03-02T19:52:05.532Z,10.60
2019-03-02T19:58:26.295Z,10.67
2019-03-02T20:00:53.533Z,10.90
2019-03-02T20:03:32.736Z,10.92
2019-03-02T20:05:59.845Z,10.80
2019-03-02T20:09:07.902Z,10.86
2019-03-02T20:11:35.071Z,10.73
2019-03-02T20:14:02.269Z,10.65
2019-03-02T20:16:30.159Z,10.66
2019-03-02T20:18:58.388Z,10.63
2019-03-02T20:21:36.275Z,10.52
2019-03-02T20:26:43.011Z,10.54
2019-03-02T20:29:30.116Z,10.65
2019-03-02T20:31:57.353Z,10.71
2019-03-02T20:34:24.564Z,10.74
2019-03-02T20:36:51.717Z,10.71
2019-03-02T20:39:59.750Z,10.75
2019-03-02T20:42:46.427Z,10.58
2019-03-02T20:45:54.908Z,10.63
2019-03-02T20:51:56.426Z,10.74
2019-03-02T20:55:04.482Z,10.66
2019-03-02T21:00:31.559Z,10.61
2019-03-02T21:02:58.738Z,10.60
2019-03-02T21:05:25.954Z,10.76
2019-03-02T21:11:35.556Z,10.69
2019-03-02T21:17:37.186Z,10.78
2019-03-02T21:20:17.128Z,11.00
2019-03-02T21:25:45.111Z,10.91
2019-03-02T21:28:24.287Z,10.88
2019-03-02T21:34:04.543Z,10.90
2019-03-02T21:42:31.788Z,10.76
2019-03-02T21:45:39.789Z,10.71
2019-03-02T21:57:11.170Z,10.63
2019-03-02T22:05:19.526Z,10.77
2019-03-02T22:07:46.724Z,10.80
2019-03-02T22:16:17.641Z,10.81
2019-03-02T22:19:04.307Z,10.67
2019-03-02T22:22:12.389Z,10.70
2019-03-02T22:24:59.289Z,10.77
2019-03-02T22:28:07.684Z,10.75
2019-03-02T22:30:35.169Z,10.68
2019-03-02T22:39:25.680Z,10.68
2019-03-02T22:41:52.909Z,10.62
2019-03-02T22:44:20.392Z,10.61
2019-03-02T22:46:47.593Z,10.67
2019-03-02T22:49:14.785Z,10.77
2019-03-02T22:51:42.006Z,10.76
2019-03-02T23:03:29.785Z,10.85
2019-03-02T23:05:56.875Z,10.75
2019-03-02T23:08:24.039Z,10.68
2019-03-02T23:14:06.385Z,10.78
2019-03-02T23:16:33.566Z,10.81
2019-03-02T23:19:00.726Z,10.76
2019-03-02T23:21:47.430Z,10.55
2019-03-02T23:24:14.617Z,10.40
2019-03-02T23:27:22.666Z,10.29
2019-03-02T23:30:09.303Z,10.38
2019-03-02T23:32:36.833Z,10.19
2019-03-02T23:35:15.567Z,10.05
2019-03-02T23:37:54.683Z,10.14
2019-03-02T23:43:17.549Z,9.96
2019-03-02T23:45:44.741Z,9.72
2019-03-02T23:48:31.412Z,9.68
2019-03-02T23:54:52.128Z,9.62
